createdAt,value
2018-12-23T00:01:31.603Z,1.8
2018-12-23T00:16:30.513Z,1.8
2018-12-23T00:30:58.444Z,1.6
2018-12-23T00:46:13.792Z,1.6
2018-12-23T01:00:55.704Z,1.8
2018-12-23T01:15:58.253Z,1.6
2018-12-23T01:31:05.130Z,1.8
2018-12-23T01:46:03.899Z,1.9
2018-12-23T02:01:00.527Z,1.8
2018-12-23T02:16:33.540Z,1.8
2018-12-23T02:31:21.057Z,1.7
2018-12-23T02:46:26.402Z,1.8
2018-12-23T03:01:26.465Z,1.9
2018-12-23T03:16:29.353Z,1.8
2018-12-23T03:31:16.073Z,1.7
2018-12-23T03:46:23.064Z,1.7
2018-12-23T04:01:05.545Z,1.8
2018-12-23T04:16:18.367Z,2
2018-12-23T04:31:19.234Z,1.9
2018-12-23T04:46:08.247Z,2
2018-12-23T05:01:07.932Z,2
2018-12-23T05:16:11.268Z,2
2018-12-23T05:31:05.458Z,2.4
2018-12-23T05:46:02.163Z,2.3
2018-12-23T06:01:01.751Z,2
2018-12-23T06:16:44.267Z,2.5
2018-12-23T06:31:40.279Z,2.2
2018-12-23T06:46:21.510Z,2.1
2018-12-23T07:01:04.370Z,2
2018-12-23T07:16:13.671Z,2.3
2018-12-23T07:31:50.131Z,2.2
2018-12-23T07:46:42.247Z,2.1
2018-12-23T07:50:49.616Z,2.1
2018-12-23T08:00:58.746Z,2
2018-12-23T08:16:15.279Z,1.9
2018-12-23T08:31:33.618Z,2.2
2018-12-23T08:46:07.564Z,2
2018-12-23T09:01:16.452Z,2
2018-12-23T09:16:24.475Z,2.7
2018-12-23T09:31:19.690Z,4.7
2018-12-23T09:46:42.079Z,3.9
2018-12-23T10:01:44.689Z,3.6
2018-12-23T10:16:40.517Z,3.5
2018-12-23T10:32:01.819Z,5.2
2018-12-23T10:46:42.371Z,4.4
2018-12-23T11:01:12.993Z,3.9
2018-12-23T11:16:28.844Z,4.8
2018-12-23T11:31:39.762Z,4.4
2018-12-23T11:47:03.484Z,4.4
2018-12-23T12:01:22.163Z,4.4
2018-12-23T12:16:44.871Z,4.5
2018-12-23T12:32:02.558Z,4.7
2018-12-23T12:46:27.231Z,4.2
2018-12-23T13:01:37.708Z,4
2018-12-23T13:16:26.158Z,4.2
2018-12-23T13:31:33.892Z,4.2
2018-12-23T13:46:55.054Z,3.9
2018-12-23T14:01:23.127Z,3.7
2018-12-23T14:17:03.617Z,3.2
2018-12-23T14:31:32.029Z,3.7
2018-12-23T14:46:45.176Z,3.5
2018-12-23T15:02:04.530Z,3.1
2018-12-23T15:16:23.878Z,3.6
2018-12-23T15:32:06.878Z,3.5
2018-12-23T15:46:25.277Z,3.5
2018-12-23T16:02:00.854Z,3.6
2018-12-23T16:16:22.085Z,3.4
2018-12-23T16:31:52.578Z,3.4
2018-12-23T16:46:40.066Z,3.3
2018-12-23T17:01:28.419Z,3.1
2018-12-23T17:17:08.797Z,3
2018-12-23T17:31:50.733Z,2.9
2018-12-23T17:46:48.246Z,2.9
2018-12-23T18:01:44.194Z,3.1
2018-12-23T18:17:15.149Z,2.7
2018-12-23T18:31:46.288Z,3.1
2018-12-23T18:47:15.664Z,2.7
2018-12-23T19:01:56.893Z,2.7
2018-12-23T19:17:32.179Z,2.9
2018-12-23T19:32:23.847Z,2.8
2018-12-23T19:47:03.008Z,2.7
2018-12-23T20:01:56.196Z,2.4
2018-12-23T20:17:17.551Z,2.9
2018-12-23T20:31:49.938Z,2.4
2018-12-23T20:47:17.945Z,2.5
2018-12-23T21:01:50.565Z,2.3
2018-12-23T21:17:05.806Z,2.5
2018-12-23T21:32:38.404Z,2.1
2018-12-23T21:46:58.766Z,2.3
2018-12-23T22:02:43.247Z,2.1
2018-12-23T22:17:29.612Z,2
2018-12-23T22:32:36.543Z,2.1
2018-12-23T22:47:05.839Z,2.1
2018-12-23T23:02:39.118Z,2
2018-12-23T23:17:45.533Z,1.9
2018-12-23T23:32:03.111Z,2.1
2018-12-23T23:47:32.079Z,1.6
